Mary Esther, FL (32569)

12:54 AM CST on December 06, 2016 (GMT -0600)
mary esther | | Change Station

Elev 20 ft 30.41 °N, 86.68 °W | Updated 1 second ago

Light Drizzle
Light Drizzle
69.8 °F
Feels Like 69.8 °F
N
0.0
Wind Variable Wind from SSW

Today
High -- | Low -- °F
--% Chance of Precip.
Yesterday
High -- | Low -- °F
Precip. -- in
Pressure 29.68 in
Visibility 10.0 miles
Clouds Mostly Cloudy 400 ft
Mostly Cloudy 3500 ft
Dew Point 69 °F
Humidity 98%
Rainfall 0.02 in
Snow Depth Not available.
6:30 AM 4:45 PM
Waxing Crescent, 39% visible
SPECI KHRT 060618Z 16006KT 10SM -DZ BKN004 BKN035 21/20 A2968 RMK AO2A RAE0558DZB0558E0559RAB0559E17DZB17 CIG 002 RWY18 $
Pressure 29.68 in
Visibility 10.0 miles
Clouds Mostly Cloudy 400 ft
Mostly Cloudy 3500 ft
Dew Point 69 °F
Humidity 98%
Rainfall 0.02 in
Snow Depth Not available.
6:30 AM 4:45 PM
Waxing Crescent, 39% visible
SPECI KHRT 060618Z 16006KT 10SM -DZ BKN004 BKN035 21/20 A2968 RMK AO2A RAE0558DZB0558E0559RAB0559E17DZB17 CIG 002 RWY18 $

10-Day Weather Forecast

Almanac

Astronomy

Dec. 06, 2016 Rise Set
Actual Time
Civil Twilight
Nautical Twilight
Astronomical Twilight
Moon
Length of Visible Light
Length of Day
Tomorrow will be .
, % of the Moon is Illuminated

Today's Extremes

State Highs State Lows

Community

WunderPhotos

Upload Photos

1,955,932 photos uploaded!

WunderBlog® & News

Nearby

Air Quality

  Air Quality AQ Index Pollutant
Not available.

Snow Depth

Station Depth Elevation

Earthquake Activity

City Distance Mag. Time & Date
Minimum magnitude displayed is 2.5.

Coastal Water Temperatures

Place Temperature

Stations

Nearby Weather Stations

Station Location Temp. Windchill Dew Point Humidity Wind Precip. Elev Updated Type
                   

Watches & Warnings

There are currently no watches in effect.